< < Back
Terminal Aerodrome Forecast


Current Version              Previous Versions:   1  2  3  4  5  6  7  8  9  

Terminal Aerodrome Forecast

637
FTUS42 KFFC 290330 AAB
TAFATL
TAF AMD
KATL 290330Z 2904/3006 14006KT P6SM BKN150
     FM290600 09005KT P6SM SCT250
     FM291400 31005KT P6SM FEW040 SCT120
     FM291800 33007KT P6SM SCT060 BKN120
     FM292300 35006KT P6SM SCT250
     FM300300 03004KT P6SM SCT250=

Latest METAR

964
SAUS70 KWBC 290856
MTRATL
METAR KATL 290852Z 33004KT 10SM FEW150 BKN250 20/16 A3011 RMK AO2 SLP185
T02000156 55003


USA.gov is the U.S. government's official web portal to all federal, state and local government web resources and services.